createdAt,value
2023-05-16T00:02:21.943Z,13.10
2023-05-16T00:04:49.391Z,14.52
2023-05-16T00:07:16.449Z,14.90
2023-05-16T00:09:43.097Z,15.85
2023-05-16T00:12:10.042Z,17.90
2023-05-16T00:14:37.291Z,18.55
2023-05-16T00:17:11.448Z,20.65
2023-05-16T00:19:42.269Z,21.45
2023-05-16T00:22:09.137Z,22.27
2023-05-16T00:24:35.875Z,22.00
2023-05-16T00:27:04.071Z,22.33
2023-05-16T00:29:37.694Z,22.38
2023-05-16T00:32:09.064Z,21.40
2023-05-16T00:34:38.323Z,22.45
2023-05-16T00:37:05.402Z,21.52
2023-05-16T00:39:32.208Z,23.27
2023-05-16T00:41:58.949Z,22.77
2023-05-16T00:44:26.059Z,22.65
2023-05-16T00:46:54.476Z,22.75
2023-05-16T00:49:26.329Z,23.02
2023-05-16T00:51:57.220Z,23.25
2023-05-16T00:54:26.849Z,23.10
2023-05-16T00:56:53.664Z,22.65
2023-05-16T00:59:23.395Z,24.02
2023-05-16T01:01:53.829Z,23.40
2023-05-16T01:04:22.217Z,23.67
2023-05-16T01:06:51.184Z,23.35
2023-05-16T01:09:20.279Z,22.88
2023-05-16T01:12:00.645Z,22.75
2023-05-16T01:14:50.110Z,22.95
2023-05-16T01:17:43.753Z,23.50
2023-05-16T01:20:37.021Z,23.98
2023-05-16T01:23:40.993Z,24.67
2023-05-16T01:26:28.145Z,25.25
2023-05-16T01:28:57.480Z,22.67
2023-05-16T01:31:32.031Z,25.05
2023-05-16T01:33:58.716Z,24.40
2023-05-16T01:36:28.192Z,24.35
2023-05-16T01:39:19.671Z,23.73
2023-05-16T01:42:03.299Z,23.30
2023-05-16T01:44:46.798Z,24.60
2023-05-16T01:47:16.427Z,23.65
2023-05-16T01:49:55.201Z,21.65
2023-05-16T01:52:42.347Z,23.90
2023-05-16T01:55:18.812Z,23.17
2023-05-16T01:57:51.620Z,24.05
2023-05-16T02:00:22.131Z,23.58
2023-05-16T02:02:51.345Z,22.67
2023-05-16T02:05:20.745Z,22.70
2023-05-16T02:07:47.565Z,22.63
2023-05-16T02:10:20.191Z,23.80
2023-05-16T02:12:50.447Z,23.05
2023-05-16T02:15:20.003Z,21.17
2023-05-16T02:17:47.290Z,21.13
2023-05-16T02:20:14.270Z,21.55
2023-05-16T02:22:46.997Z,21.15
2023-05-16T02:25:17.177Z,22.35
2023-05-16T02:27:43.763Z,21.90
2023-05-16T02:30:19.406Z,21.42
2023-05-16T02:32:46.256Z,22.52
2023-05-16T02:35:15.412Z,21.60
2023-05-16T02:37:44.342Z,22.00
2023-05-16T02:40:11.433Z,21.40
2023-05-16T02:42:40.530Z,21.75
2023-05-16T02:45:07.496Z,20.38
2023-05-16T02:47:40.465Z,20.52
2023-05-16T02:50:10.459Z,19.70
2023-05-16T02:52:40.216Z,19.15
2023-05-16T02:57:37.404Z,19.55
2023-05-16T03:00:06.926Z,21.13
2023-05-16T03:02:36.252Z,19.73
2023-05-16T03:05:10.186Z,19.48
2023-05-16T03:10:05.545Z,19.50
2023-05-16T03:12:32.233Z,18.70
2023-05-16T03:14:58.975Z,18.90
2023-05-16T03:17:31.773Z,19.42
2023-05-16T03:20:01.203Z,18.50
2023-05-16T03:22:27.984Z,19.10
2023-05-16T03:24:54.647Z,19.15
2023-05-16T03:27:22.641Z,19.27
2023-05-16T03:29:49.289Z,18.38
2023-05-16T03:32:16.125Z,19.05
2023-05-16T03:34:42.753Z,18.95
2023-05-16T03:37:14.932Z,18.58
2023-05-16T03:39:41.738Z,18.50
2023-05-16T03:42:12.180Z,18.52
2023-05-16T03:44:38.856Z,18.13
2023-05-16T03:47:06.370Z,17.35
2023-05-16T03:49:36.083Z,17.40
2023-05-16T03:52:04.332Z,17.80
2023-05-16T03:54:31.016Z,16.58
2023-05-16T03:56:57.666Z,17.27
2023-05-16T03:59:24.497Z,17.10
2023-05-16T04:01:51.175Z,16.40
2023-05-16T04:04:20.001Z,16.10
2023-05-16T04:06:46.700Z,15.68
2023-05-16T04:09:17.734Z,16.17
2023-05-16T04:11:44.593Z,16.20
2023-05-16T04:14:11.313Z,17.42
2023-05-16T04:16:38.347Z,16.40
2023-05-16T04:19:05.069Z,16.13
2023-05-16T04:21:38.357Z,16.00
2023-05-16T04:24:09.546Z,16.25
2023-05-16T04:26:37.364Z,16.50
2023-05-16T04:29:08.778Z,15.95
2023-05-16T04:31:41.458Z,16.40
2023-05-16T04:34:12.150Z,16.95
2023-05-16T04:36:39.114Z,17.58
2023-05-16T04:39:06.259Z,19.10
2023-05-16T04:41:33.991Z,17.45
2023-05-16T04:44:06.372Z,16.73
2023-05-16T04:46:33.070Z,16.85
2023-05-16T04:48:59.704Z,15.80
2023-05-16T04:51:29.374Z,15.25
2023-05-16T04:53:56.262Z,14.80
2023-05-16T04:56:22.903Z,15.68
2023-05-16T04:58:52.597Z,14.75
2023-05-16T05:01:19.314Z,16.13
2023-05-16T05:03:48.199Z,14.45
2023-05-16T05:06:15.302Z,14.65
2023-05-16T05:08:41.927Z,15.15
2023-05-16T05:11:08.711Z,14.63
2023-05-16T05:13:35.466Z,15.75
2023-05-16T05:16:07.614Z,15.45
2023-05-16T05:18:34.356Z,15.48
2023-05-16T05:21:01.609Z,15.23
2023-05-16T05:23:30.935Z,14.88
2023-05-16T05:26:00.843Z,12.55
2023-05-16T05:28:27.511Z,12.40
2023-05-16T05:30:58.925Z,13.32
2023-05-16T05:33:29.615Z,12.80
2023-05-16T05:35:56.722Z,12.70
2023-05-16T05:38:23.473Z,12.48
2023-05-16T05:40:52.441Z,12.85
2023-05-16T05:43:19.126Z,11.85
2023-05-16T05:45:49.998Z,12.00
2023-05-16T05:48:16.779Z,11.65
2023-05-16T05:50:43.417Z,11.77
2023-05-16T05:53:10.305Z,12.02
2023-05-16T05:55:37.109Z,11.00
2023-05-16T05:58:05.669Z,10.43
2023-05-16T06:00:33.842Z,10.55
2023-05-16T06:03:00.598Z,10.10
2023-05-16T06:05:27.762Z,10.73
2023-05-16T06:07:54.691Z,10.43
2023-05-16T06:10:21.421Z,10.13
2023-05-16T06:12:50.663Z,9.15
2023-05-16T06:15:17.450Z,9.30
2023-05-16T06:17:44.211Z,8.88
2023-05-16T06:20:13.641Z,9.38
2023-05-16T06:22:40.558Z,8.88
2023-05-16T06:25:07.598Z,8.77
2023-05-16T06:27:34.319Z,8.30
2023-05-16T06:30:06.348Z,6.95
2023-05-16T06:32:38.179Z,6.03
2023-05-16T06:35:09.384Z,5.00
2023-05-16T06:37:36.239Z,4.82
2023-05-16T06:40:06.702Z,5.30
2023-05-16T06:42:33.577Z,4.80
2023-05-16T06:45:04.877Z,4.75
2023-05-16T06:47:33.129Z,4.35
2023-05-16T06:50:02.901Z,3.80
2023-05-16T06:52:33.443Z,3.42
2023-05-16T06:55:00.251Z,3.25
2023-05-16T06:57:27.002Z,3.28
2023-05-16T06:59:53.855Z,2.90
2023-05-16T07:02:20.810Z,2.60
2023-05-16T07:04:47.930Z,2.38
2023-05-16T07:07:17.270Z,2.60
2023-05-16T07:09:44.002Z,2.25
2023-05-16T07:12:12.928Z,2.15
2023-05-16T07:14:40.662Z,2.25
2023-05-16T07:17:07.770Z,1.55
2023-05-16T07:19:37.230Z,1.30
2023-05-16T07:22:17.678Z,1.05
2023-05-16T07:24:50.387Z,1.23
2023-05-16T07:27:17.736Z,1.00
2023-05-16T07:29:51.476Z,1.25
2023-05-16T07:32:18.762Z,1.10
2023-05-16T07:34:49.608Z,0.57
2023-05-16T07:37:16.454Z,0.70
2023-05-16T07:39:43.210Z,0.82
2023-05-16T07:42:10.198Z,0.50
2023-05-16T07:44:37.068Z,0.80
2023-05-16T07:47:03.987Z,0.60
2023-05-16T07:49:30.874Z,0.75
2023-05-16T07:52:20.357Z,1.13
2023-05-16T07:54:48.048Z,3.00
2023-05-16T07:57:18.234Z,1.00
2023-05-16T07:59:45.342Z,0.90
2023-05-16T08:02:14.758Z,0.77
2023-05-16T08:04:41.789Z,0.88
2023-05-16T08:07:08.704Z,0.75
2023-05-16T08:09:40.910Z,0.68
2023-05-16T08:12:12.920Z,0.60
2023-05-16T08:14:39.840Z,0.80
2023-05-16T08:17:09.097Z,0.70
2023-05-16T08:19:40.312Z,0.75
2023-05-16T08:22:09.310Z,0.80
2023-05-16T08:24:36.245Z,0.75
2023-05-16T08:27:03.100Z,0.60
2023-05-16T08:29:30.277Z,0.70
2023-05-16T08:31:59.877Z,0.65
2023-05-16T08:34:26.695Z,0.50
2023-05-16T08:36:54.694Z,0.52
2023-05-16T08:39:21.566Z,0.75
2023-05-16T08:41:49.808Z,0.50
2023-05-16T08:44:21.467Z,0.65
2023-05-16T08:46:55.272Z,0.57
2023-05-16T08:51:56.351Z,0.60
2023-05-16T08:54:27.984Z,0.55
2023-05-16T08:56:57.616Z,0.75
2023-05-16T08:59:27.758Z,0.70
2023-05-16T09:01:55.792Z,0.60
2023-05-16T09:04:26.295Z,0.90
2023-05-16T09:06:56.086Z,0.55
2023-05-16T09:09:24.338Z,0.40
2023-05-16T09:11:53.340Z,0.77
2023-05-16T09:14:23.817Z,0.50
2023-05-16T09:17:12.127Z,0.60
2023-05-16T09:19:41.069Z,0.40
2023-05-16T09:22:13.663Z,0.38
2023-05-16T09:24:41.670Z,0.40
2023-05-16T09:27:10.395Z,0.40
2023-05-16T09:29:37.357Z,0.40
2023-05-16T09:32:15.290Z,0.43
2023-05-16T09:34:48.865Z,0.30
2023-05-16T09:37:16.359Z,0.30
2023-05-16T09:39:54.892Z,0.40
2023-05-16T09:42:22.785Z,0.50
2023-05-16T09:44:54.776Z,0.45
2023-05-16T09:47:22.577Z,0.28
2023-05-16T09:49:53.721Z,0.43
2023-05-16T09:52:20.880Z,0.40
2023-05-16T09:54:51.451Z,0.38
2023-05-16T09:57:27.070Z,0.50
2023-05-16T09:59:53.898Z,0.40
2023-05-16T10:02:21.020Z,0.30
2023-05-16T10:04:49.906Z,0.70
2023-05-16T10:07:17.017Z,0.68
2023-05-16T10:09:45.046Z,0.50
2023-05-16T10:12:15.340Z,0.50
2023-05-16T10:14:46.543Z,0.30
2023-05-16T10:17:15.810Z,0.30
2023-05-16T10:19:43.577Z,0.38
2023-05-16T10:22:11.967Z,0.60
2023-05-16T10:24:54.403Z,0.40
2023-05-16T10:27:21.822Z,0.30
2023-05-16T10:29:54.614Z,0.40
2023-05-16T10:32:24.167Z,0.57
2023-05-16T10:34:51.178Z,0.60
2023-05-16T10:37:18.413Z,0.50
2023-05-16T10:39:46.104Z,0.77
2023-05-16T10:42:18.108Z,0.80
2023-05-16T10:45:01.952Z,0.40
2023-05-16T10:47:32.062Z,0.50
2023-05-16T10:49:58.808Z,0.65
2023-05-16T10:52:34.238Z,0.70
2023-05-16T10:55:05.564Z,0.47
2023-05-16T10:57:33.369Z,0.60
2023-05-16T11:00:04.334Z,0.70
2023-05-16T11:02:34.049Z,0.52
2023-05-16T11:05:02.935Z,0.50
2023-05-16T11:07:35.119Z,0.70
2023-05-16T11:10:15.947Z,0.40
2023-05-16T11:12:50.330Z,0.60
2023-05-16T11:15:24.860Z,1.08
2023-05-16T11:18:06.552Z,0.55
2023-05-16T11:20:36.013Z,0.43
2023-05-16T11:23:22.894Z,0.60
2023-05-16T11:26:00.756Z,0.88
2023-05-16T11:28:28.097Z,1.00
2023-05-16T11:30:57.849Z,0.70
2023-05-16T11:33:25.596Z,0.47
2023-05-16T11:36:14.591Z,0.90
2023-05-16T11:38:44.593Z,1.20
2023-05-16T11:41:15.499Z,0.82
2023-05-16T11:43:45.176Z,0.85
2023-05-16T11:46:18.350Z,1.05
2023-05-16T11:48:46.387Z,0.90
2023-05-16T11:51:19.222Z,1.25
2023-05-16T11:53:49.821Z,1.10
2023-05-16T11:56:19.313Z,1.20
2023-05-16T11:58:46.393Z,1.15
2023-05-16T12:01:13.132Z,1.13
2023-05-16T12:03:42.530Z,1.42
2023-05-16T12:06:11.818Z,1.13
2023-05-16T12:08:40.868Z,1.58
2023-05-16T12:11:10.162Z,1.73
2023-05-16T12:13:40.012Z,1.65
2023-05-16T12:16:07.534Z,1.90
2023-05-16T12:18:34.789Z,1.85
2023-05-16T12:21:06.662Z,1.70
2023-05-16T12:23:34.302Z,1.98
2023-05-16T12:26:07.016Z,1.48
2023-05-16T12:28:40.267Z,1.70
2023-05-16T12:31:31.245Z,1.70
2023-05-16T12:34:05.763Z,2.15
2023-05-16T12:36:36.344Z,2.25
2023-05-16T12:39:15.474Z,1.52
2023-05-16T12:41:44.108Z,1.52
2023-05-16T12:44:19.745Z,2.08
2023-05-16T12:46:55.300Z,1.90
2023-05-16T12:49:22.932Z,1.70
2023-05-16T12:51:53.885Z,1.73
2023-05-16T12:54:23.025Z,1.73
2023-05-16T12:56:50.029Z,1.70
2023-05-16T12:59:16.850Z,2.03
2023-05-16T13:01:45.927Z,1.90
2023-05-16T13:04:19.058Z,1.55
2023-05-16T13:06:58.647Z,1.20
2023-05-16T13:09:32.478Z,1.50
2023-05-16T13:12:00.379Z,1.38
2023-05-16T13:14:28.031Z,1.63
2023-05-16T13:16:54.976Z,2.42
2023-05-16T13:19:23.225Z,1.75
2023-05-16T13:21:50.506Z,1.80
2023-05-16T13:24:17.282Z,1.55
2023-05-16T13:26:44.103Z,1.83
2023-05-16T13:29:12.301Z,1.58
2023-05-16T13:31:39.141Z,2.15
2023-05-16T13:34:07.032Z,1.77
2023-05-16T13:36:49.329Z,2.00
2023-05-16T13:39:19.697Z,1.85
2023-05-16T13:41:49.165Z,1.95
2023-05-16T13:44:16.566Z,1.85
2023-05-16T13:46:43.607Z,1.48
2023-05-16T13:49:10.553Z,1.77
2023-05-16T13:51:39.445Z,1.65
2023-05-16T13:54:06.380Z,1.80
2023-05-16T13:56:33.142Z,1.85
2023-05-16T13:59:05.781Z,1.60
2023-05-16T14:01:34.343Z,1.88
2023-05-16T14:04:01.985Z,2.05
2023-05-16T14:06:28.769Z,1.95
2023-05-16T14:08:57.760Z,1.65
2023-05-16T14:11:29.229Z,1.65
2023-05-16T14:13:57.311Z,1.90
2023-05-16T14:16:24.177Z,1.98
2023-05-16T14:18:51.483Z,1.60
2023-05-16T14:21:18.335Z,1.92
2023-05-16T14:23:45.215Z,2.08
2023-05-16T14:26:11.964Z,2.00
2023-05-16T14:28:38.756Z,2.20
2023-05-16T14:31:07.065Z,1.90
2023-05-16T14:33:33.808Z,1.73
2023-05-16T14:36:00.858Z,2.03
2023-05-16T14:38:28.142Z,1.77
2023-05-16T14:40:57.064Z,1.73
2023-05-16T14:43:24.336Z,1.45
2023-05-16T14:45:53.448Z,1.88
2023-05-16T14:48:20.429Z,1.77
2023-05-16T14:50:47.513Z,1.95
2023-05-16T14:53:16.751Z,1.63
2023-05-16T14:55:49.330Z,1.73
2023-05-16T14:58:17.231Z,1.75
2023-05-16T15:00:44.456Z,1.58
2023-05-16T15:03:13.104Z,1.77
2023-05-16T15:05:43.380Z,1.90
2023-05-16T15:08:19.227Z,1.63
2023-05-16T15:10:46.155Z,1.58
2023-05-16T15:13:13.050Z,1.35
2023-05-16T15:15:45.915Z,1.80
2023-05-16T15:18:14.179Z,1.67
2023-05-16T15:20:41.015Z,1.60
2023-05-16T15:23:10.775Z,1.20
2023-05-16T15:25:37.781Z,1.70
2023-05-16T15:28:07.976Z,1.35
2023-05-16T15:30:43.719Z,1.55
2023-05-16T15:33:13.805Z,1.35
2023-05-16T15:35:46.435Z,1.15
2023-05-16T15:38:14.418Z,1.60
2023-05-16T15:40:41.453Z,1.30
2023-05-16T15:43:08.489Z,1.40
2023-05-16T15:45:38.686Z,1.60
2023-05-16T15:48:07.305Z,1.60
2023-05-16T15:50:34.499Z,1.13
2023-05-16T15:53:01.575Z,1.40
2023-05-16T15:55:29.268Z,1.20
2023-05-16T15:57:58.567Z,1.45
2023-05-16T16:00:26.135Z,0.98
2023-05-16T16:02:53.567Z,1.35
2023-05-16T16:05:22.745Z,1.65
2023-05-16T16:07:49.692Z,1.30
2023-05-16T16:10:16.456Z,1.40
2023-05-16T16:12:43.296Z,1.50
2023-05-16T16:15:10.884Z,1.55
2023-05-16T16:17:37.871Z,1.50
2023-05-16T16:20:05.242Z,1.08
2023-05-16T16:22:32.175Z,1.35
2023-05-16T16:24:59.099Z,1.30
2023-05-16T16:27:28.107Z,1.08
2023-05-16T16:29:54.872Z,1.50
2023-05-16T16:32:23.982Z,1.05
2023-05-16T16:34:50.833Z,1.42
2023-05-16T16:37:17.712Z,1.67
2023-05-16T16:39:44.487Z,1.50
2023-05-16T16:42:11.338Z,1.40
2023-05-16T16:44:38.195Z,1.60
2023-05-16T16:47:05.268Z,0.95
2023-05-16T16:49:32.265Z,1.33
2023-05-16T16:52:01.428Z,1.13
2023-05-16T16:54:28.413Z,1.20
2023-05-16T16:56:56.508Z,1.58
2023-05-16T16:59:23.530Z,1.10
2023-05-16T17:01:51.024Z,1.13
2023-05-16T17:04:20.092Z,1.40
2023-05-16T17:06:49.286Z,1.33
2023-05-16T17:09:20.264Z,1.38
2023-05-16T17:11:47.150Z,0.90
2023-05-16T17:14:15.268Z,1.00
2023-05-16T17:16:42.552Z,1.38
2023-05-16T17:19:12.402Z,1.33
2023-05-16T17:21:44.931Z,1.23
2023-05-16T17:24:11.963Z,1.40
2023-05-16T17:26:39.202Z,1.05
2023-05-16T17:29:06.174Z,1.60
2023-05-16T17:31:33.576Z,1.70
2023-05-16T17:34:00.560Z,1.35
2023-05-16T17:36:32.182Z,1.92
2023-05-16T17:38:59.453Z,1.50
2023-05-16T17:41:27.290Z,0.88
2023-05-16T17:43:54.710Z,1.10
2023-05-16T17:46:21.820Z,1.10
2023-05-16T17:48:58.366Z,1.40
2023-05-16T17:51:25.533Z,1.20
2023-05-16T17:53:52.813Z,0.80
2023-05-16T17:56:22.609Z,1.00
2023-05-16T17:58:49.606Z,1.20
2023-05-16T18:01:16.386Z,1.10
2023-05-16T18:03:43.486Z,1.23
2023-05-16T18:06:12.012Z,1.10
2023-05-16T18:08:41.436Z,1.27
2023-05-16T18:11:08.198Z,1.42
2023-05-16T18:13:34.950Z,1.20
2023-05-16T18:16:02.293Z,1.00
2023-05-16T18:18:32.076Z,0.90
2023-05-16T18:20:58.782Z,1.42
2023-05-16T18:23:25.562Z,1.48
2023-05-16T18:25:52.669Z,3.05
2023-05-16T18:28:19.546Z,3.42
2023-05-16T18:30:46.254Z,2.00
2023-05-16T18:33:13.602Z,1.23
2023-05-16T18:35:40.422Z,1.23
2023-05-16T18:38:12.364Z,1.23
2023-05-16T18:40:50.495Z,1.10
2023-05-16T18:43:19.398Z,1.27
2023-05-16T18:45:53.697Z,1.25
2023-05-16T18:48:24.010Z,1.20
2023-05-16T18:50:51.398Z,0.90
2023-05-16T18:53:18.237Z,1.02
2023-05-16T18:55:45.270Z,1.35
2023-05-16T18:58:12.036Z,0.90
2023-05-16T19:00:39.503Z,1.10
2023-05-16T19:03:09.960Z,0.93
2023-05-16T19:05:37.477Z,1.27
2023-05-16T19:08:07.036Z,1.55
2023-05-16T19:10:38.197Z,1.65
2023-05-16T19:13:09.125Z,1.30
2023-05-16T19:15:37.202Z,1.10
2023-05-16T19:18:07.194Z,1.40
2023-05-16T19:20:34.994Z,1.20
2023-05-16T19:23:05.110Z,1.10
2023-05-16T19:25:37.635Z,1.30
2023-05-16T19:28:09.607Z,1.27
2023-05-16T19:30:45.737Z,1.15
2023-05-16T19:33:17.853Z,1.27
2023-05-16T19:35:48.558Z,1.20
2023-05-16T19:38:16.084Z,2.65
2023-05-16T19:40:42.840Z,1.83
2023-05-16T19:43:09.830Z,1.52
2023-05-16T19:45:37.462Z,1.38
2023-05-16T19:48:04.829Z,1.13
2023-05-16T19:50:31.705Z,1.23
2023-05-16T19:52:58.979Z,1.20
2023-05-16T19:55:29.170Z,1.17
2023-05-16T19:57:56.875Z,1.08
2023-05-16T20:00:25.062Z,0.80
2023-05-16T20:02:52.601Z,1.30
2023-05-16T20:05:22.595Z,1.27
2023-05-16T20:07:58.549Z,0.80
2023-05-16T20:10:25.649Z,0.90
2023-05-16T20:12:52.438Z,0.90
2023-05-16T20:15:22.036Z,1.10
2023-05-16T20:17:48.820Z,1.17
2023-05-16T20:20:16.688Z,1.88
2023-05-16T20:22:43.555Z,1.10
2023-05-16T20:25:11.365Z,0.88
2023-05-16T20:27:38.402Z,1.20
2023-05-16T20:30:06.720Z,1.20
2023-05-16T20:32:34.069Z,1.05
2023-05-16T20:35:01.271Z,1.30
2023-05-16T20:37:28.156Z,0.90
2023-05-16T20:39:55.251Z,1.30
2023-05-16T20:42:24.612Z,1.27
2023-05-16T20:44:51.578Z,1.10
2023-05-16T20:47:18.361Z,1.08
2023-05-16T20:49:47.720Z,1.15
2023-05-16T20:52:14.492Z,0.80
2023-05-16T20:54:43.760Z,1.00
2023-05-16T20:57:10.724Z,1.60
2023-05-16T20:59:37.573Z,1.75
2023-05-16T21:02:06.281Z,2.50
2023-05-16T21:04:33.666Z,3.55
2023-05-16T21:07:00.494Z,4.32
2023-05-16T21:09:27.629Z,1.95
2023-05-16T21:11:54.408Z,1.40
2023-05-16T21:14:23.488Z,0.80
2023-05-16T21:16:50.475Z,1.20
2023-05-16T21:19:17.446Z,1.50
2023-05-16T21:21:46.823Z,1.20
2023-05-16T21:24:13.572Z,1.33
2023-05-16T21:26:42.814Z,0.90
2023-05-16T21:29:09.759Z,1.00
2023-05-16T21:31:36.507Z,1.00
2023-05-16T21:34:03.297Z,1.08
2023-05-16T21:36:33.061Z,1.08
2023-05-16T21:38:59.683Z,1.00
2023-05-16T21:41:26.845Z,1.23
2023-05-16T21:43:55.854Z,1.20
2023-05-16T21:46:22.568Z,1.20
2023-05-16T21:48:49.527Z,0.90
2023-05-16T21:51:16.440Z,1.48
2023-05-16T21:53:51.589Z,1.40
2023-05-16T21:56:19.307Z,1.30
2023-05-16T21:58:46.308Z,1.20
2023-05-16T22:01:22.368Z,1.00
2023-05-16T22:03:49.515Z,1.40
2023-05-16T22:06:16.676Z,1.27
2023-05-16T22:08:43.938Z,1.27
2023-05-16T22:11:10.979Z,1.30
2023-05-16T22:13:41.128Z,1.58
2023-05-16T22:16:13.876Z,1.10
2023-05-16T22:18:41.098Z,1.00
2023-05-16T22:21:08.065Z,0.98
2023-05-16T22:23:36.959Z,1.30
2023-05-16T22:26:06.887Z,1.00
2023-05-16T22:28:39.676Z,1.17
2023-05-16T22:31:07.011Z,1.13
2023-05-16T22:33:34.042Z,1.98
2023-05-16T22:36:03.254Z,1.02
2023-05-16T22:38:30.208Z,1.65
2023-05-16T22:41:02.396Z,1.73
2023-05-16T22:43:29.432Z,1.13
2023-05-16T22:45:59.813Z,2.15
2023-05-16T22:48:27.716Z,1.30
2023-05-16T22:51:00.060Z,1.63
2023-05-16T22:53:34.287Z,1.83
2023-05-16T22:56:01.246Z,1.30
2023-05-16T22:58:28.081Z,1.10
2023-05-16T23:00:55.134Z,1.58
2023-05-16T23:03:22.301Z,1.30
2023-05-16T23:05:51.370Z,1.33
2023-05-16T23:08:27.233Z,1.50
2023-05-16T23:10:54.358Z,1.55
2023-05-16T23:13:25.904Z,1.40
2023-05-16T23:15:58.184Z,1.60
2023-05-16T23:18:27.496Z,1.50
2023-05-16T23:20:59.657Z,1.85
2023-05-16T23:23:26.413Z,1.17
2023-05-16T23:25:55.554Z,1.33
2023-05-16T23:28:22.528Z,1.67
2023-05-16T23:30:49.190Z,1.77
2023-05-16T23:33:16.392Z,1.27
2023-05-16T23:35:43.166Z,1.60
2023-05-16T23:38:12.074Z,1.70
2023-05-16T23:40:40.084Z,1.80
2023-05-16T23:43:06.788Z,1.25
2023-05-16T23:45:33.602Z,1.73
2023-05-16T23:48:00.373Z,1.52
2023-05-16T23:50:27.219Z,1.55
2023-05-16T23:52:54.344Z,1.65
2023-05-16T23:55:21.254Z,1.73
2023-05-16T23:57:50.928Z,1.52
